Time;durP1;ratioP1;P1;durP2;ratioP2;P2;SDS_P1;SDS_P2;PMS_P1;PMS_P2;Temp;Humidity;BMP_temperature;BMP_pressure;BME280_temperature;BME280_humidity;BME280_pressure;Samples;Min_cycle;Max_cycle;Signal;HPM_P1;HPM_P2
2023/11/18 00:01:56;;;;;;;6.07;5.25;;;;;;;;;;5006497;28;20033;-76
2023/11/18 00:04:22;;;;;;;6.72;5.63;;;;;;;;;;4997539;28;20050;-76
2023/11/18 00:06:48;;;;;;;7.15;5.65;;;;;;;;;;4994179;28;20022;-76
2023/11/18 00:09:15;;;;;;;7.53;6.20;;;;;;;;;;5004667;28;20117;-76
2023/11/18 00:11:42;;;;;;;8.35;6.95;;;;;;;;;;4999255;28;20030;-76
2023/11/18 00:14:08;;;;;;;8.95;5.93;;;;;;;;;;4999185;28;20021;-76
2023/11/18 00:16:35;;;;;;;9.02;6.78;;;;;;;;;;5019001;28;20025;-75
2023/11/18 00:19:05;;;;;;;9.93;7.38;;;;;;;;;;5003871;28;20018;-77
2023/11/18 00:21:31;;;;;;;7.53;6.55;;;;;;;;;;5004726;28;20113;-76
2023/11/18 00:23:57;;;;;;;7.30;6.00;;;;;;;;;;5007055;28;20038;-76
2023/11/18 00:26:25;;;;;;;8.27;6.82;;;;;;;;;;5009502;28;20089;-76
2023/11/18 00:28:51;;;;;;;7.82;6.78;;;;;;;;;;5001346;28;20019;-77
2023/11/18 00:31:17;;;;;;;8.80;6.72;;;;;;;;;;5018147;28;20077;-76
2023/11/18 00:33:44;;;;;;;9.80;7.07;;;;;;;;;;5021451;28;20553;-76
2023/11/18 00:36:10;;;;;;;6.43;5.35;;;;;;;;;;5010152;28;20032;-76
2023/11/18 00:38:36;;;;;;;6.75;5.45;;;;;;;;;;5022516;28;20021;-77
2023/11/18 00:41:02;;;;;;;7.60;6.18;;;;;;;;;;5025241;28;20034;-77
2023/11/18 00:43:28;;;;;;;5.97;5.38;;;;;;;;;;5001871;28;20027;-77
2023/11/18 00:45:54;;;;;;;5.68;5.07;;;;;;;;;;5017090;28;20495;-76
2023/11/18 00:48:20;;;;;;;4.88;4.43;;;;;;;;;;4998067;28;20041;-78
2023/11/18 00:50:46;;;;;;;4.85;4.35;;;;;;;;;;5008438;28;20053;-77
2023/11/18 00:53:13;;;;;;;5.32;4.43;;;;;;;;;;5009385;28;20034;-77
2023/11/18 00:55:39;;;;;;;9.40;4.40;;;;;;;;;;5020469;28;20038;-76
2023/11/18 00:58:05;;;;;;;4.28;3.80;;;;;;;;;;5008288;28;20035;-76
2023/11/18 01:00:31;;;;;;;5.68;4.00;;;;;;;;;;5019603;28;20440;-77
2023/11/18 01:02:58;;;;;;;3.85;3.15;;;;;;;;;;5012896;28;20080;-77
2023/11/18 01:05:24;;;;;;;3.85;3.45;;;;;;;;;;5010625;28;20023;-77
2023/11/18 01:07:50;;;;;;;5.25;3.15;;;;;;;;;;4997415;28;20026;-76
2023/11/18 01:10:16;;;;;;;4.00;3.38;;;;;;;;;;5012835;28;20404;-76
2023/11/18 01:12:45;;;;;;;3.35;2.97;;;;;;;;;;5006153;28;20457;-76
2023/11/18 01:15:12;;;;;;;3.30;2.90;;;;;;;;;;5033544;28;20045;-77
2023/11/18 01:17:38;;;;;;;3.03;2.72;;;;;;;;;;5029687;28;20033;-78
2023/11/18 01:20:09;;;;;;;2.80;2.50;;;;;;;;;;5024297;28;20038;-76
2023/11/18 01:22:36;;;;;;;2.58;2.33;;;;;;;;;;5032801;28;20037;-76
2023/11/18 01:25:02;;;;;;;3.20;2.28;;;;;;;;;;5021608;28;20038;-78
2023/11/18 01:27:28;;;;;;;2.40;2.20;;;;;;;;;;5021944;28;20027;-77
2023/11/18 01:29:54;;;;;;;2.67;2.47;;;;;;;;;;5015632;28;20022;-76
2023/11/18 01:32:20;;;;;;;2.60;2.40;;;;;;;;;;5024422;28;20045;-77
2023/11/18 01:34:50;;;;;;;3.22;2.90;;;;;;;;;;5012538;28;20057;-75
2023/11/18 01:37:21;;;;;;;2.78;2.53;;;;;;;;;;5006351;28;20026;-76
2023/11/18 01:39:47;;;;;;;3.28;2.95;;;;;;;;;;5018903;28;20124;-76
2023/11/18 01:42:13;;;;;;;2.85;2.60;;;;;;;;;;5019941;28;20408;-77
2023/11/18 01:44:40;;;;;;;3.33;2.53;;;;;;;;;;5011751;28;20068;-77
2023/11/18 01:47:10;;;;;;;3.08;2.28;;;;;;;;;;5011221;28;20090;-76
2023/11/18 01:49:39;;;;;;;2.40;2.20;;;;;;;;;;5022910;28;20070;-76
2023/11/18 01:52:07;;;;;;;2.67;2.47;;;;;;;;;;5020785;28;20030;-76
2023/11/18 01:54:33;;;;;;;2.13;1.92;;;;;;;;;;5023530;28;20026;-77
2023/11/18 01:57:02;;;;;;;3.08;2.78;;;;;;;;;;5007472;28;20037;-77
2023/11/18 01:59:29;;;;;;;2.97;2.63;;;;;;;;;;5019523;28;20486;-76
2023/11/18 02:01:59;;;;;;;2.90;2.65;;;;;;;;;;5014702;28;20053;-76
2023/11/18 02:04:25;;;;;;;3.83;2.47;;;;;;;;;;5004816;28;20134;-78
2023/11/18 02:06:52;;;;;;;2.45;2.17;;;;;;;;;;5040424;28;20379;-76
2023/11/18 02:09:19;;;;;;;2.88;2.45;;;;;;;;;;5041640;28;20036;-75
2023/11/18 02:11:50;;;;;;;3.08;2.78;;;;;;;;;;5032741;28;20034;-76
2023/11/18 02:14:17;;;;;;;4.32;2.88;;;;;;;;;;5025301;28;20017;-77
2023/11/18 02:16:43;;;;;;;3.10;2.38;;;;;;;;;;5014050;28;20034;-76
2023/11/18 02:19:13;;;;;;;2.60;2.40;;;;;;;;;;5017873;28;20059;-77
2023/11/18 02:21:40;;;;;;;2.50;2.30;;;;;;;;;;5016319;28;20045;-77
2023/11/18 02:24:06;;;;;;;2.88;2.08;;;;;;;;;;5024816;28;20097;-77
2023/11/18 02:26:32;;;;;;;2.60;2.40;;;;;;;;;;5013463;28;20029;-77
2023/11/18 02:28:58;;;;;;;2.75;2.55;;;;;;;;;;5021705;28;20073;-77
2023/11/18 02:31:31;;;;;;;3.53;2.58;;;;;;;;;;5015960;28;20026;-76
2023/11/18 02:34:08;;;;;;;2.78;2.50;;;;;;;;;;5022343;28;20037;-76
2023/11/18 02:36:40;;;;;;;2.20;2.00;;;;;;;;;;5006333;28;20037;-76
2023/11/18 02:39:15;;;;;;;1.75;1.65;;;;;;;;;;5027224;28;20013;-76
2023/11/18 02:41:45;;;;;;;2.35;1.85;;;;;;;;;;5050447;28;20018;-77
2023/11/18 02:44:11;;;;;;;1.92;1.83;;;;;;;;;;5038644;28;20014;-77
2023/11/18 02:46:38;;;;;;;2.20;2.00;;;;;;;;;;5030255;28;20037;-77
2023/11/18 02:49:04;;;;;;;2.60;2.40;;;;;;;;;;5027663;28;20089;-76
2023/11/18 02:51:39;;;;;;;3.22;2.40;;;;;;;;;;5026198;28;20082;-76
2023/11/18 02:54:06;;;;;;;2.20;2.00;;;;;;;;;;5033763;28;20018;-77
2023/11/18 02:56:32;;;;;;;3.28;2.58;;;;;;;;;;5038928;28;20018;-76
2023/11/18 02:58:59;;;;;;;2.53;2.33;;;;;;;;;;5030115;28;20037;-77
2023/11/18 03:01:27;;;;;;;2.80;2.47;;;;;;;;;;5033230;28;20029;-76
2023/11/18 03:03:54;;;;;;;2.13;2.03;;;;;;;;;;5031928;28;20724;-76
2023/11/18 03:06:20;;;;;;;2.85;2.63;;;;;;;;;;5036446;28;20065;-77
2023/11/18 03:08:47;;;;;;;3.22;2.40;;;;;;;;;;5028767;28;20059;-76
2023/11/18 03:11:13;;;;;;;2.35;2.13;;;;;;;;;;5019113;28;20023;-77
2023/11/18 03:13:39;;;;;;;2.92;2.60;;;;;;;;;;5028215;28;20038;-76
2023/11/18 03:16:12;;;;;;;2.45;2.25;;;;;;;;;;5022396;28;20151;-76
2023/11/18 03:18:42;;;;;;;3.20;2.90;;;;;;;;;;5005107;28;20022;-77
2023/11/18 03:21:13;;;;;;;3.15;2.85;;;;;;;;;;5018971;28;20472;-77
2023/11/18 03:23:40;;;;;;;3.22;2.92;;;;;;;;;;5019151;28;20029;-78
2023/11/18 03:26:07;;;;;;;2.67;2.40;;;;;;;;;;5013599;28;20032;-76
2023/11/18 03:28:33;;;;;;;2.50;2.30;;;;;;;;;;5014400;28;20021;-77
2023/11/18 03:30:59;;;;;;;2.60;2.40;;;;;;;;;;5007016;28;20033;-77
2023/11/18 03:33:25;;;;;;;3.03;2.72;;;;;;;;;;5012240;28;20281;-77
2023/11/18 03:35:51;;;;;;;2.70;2.50;;;;;;;;;;5007780;28;20227;-77
2023/11/18 03:38:17;;;;;;;5.00;2.80;;;;;;;;;;5008367;28;20520;-77
2023/11/18 03:40:45;;;;;;;2.70;2.50;;;;;;;;;;5014066;28;20019;-77
2023/11/18 03:43:11;;;;;;;2.92;2.63;;;;;;;;;;4995715;28;20037;-76
2023/11/18 03:45:40;;;;;;;2.50;2.30;;;;;;;;;;5015642;28;20027;-76
2023/11/18 03:48:07;;;;;;;2.40;2.20;;;;;;;;;;5002831;28;20072;-76
2023/11/18 03:50:34;;;;;;;2.20;2.00;;;;;;;;;;5006052;28;20018;-76
2023/11/18 03:53:01;;;;;;;2.63;2.22;;;;;;;;;;5009554;28;20029;-77
2023/11/18 03:55:27;;;;;;;2.38;2.03;;;;;;;;;;5015308;28;20082;-76
2023/11/18 03:57:53;;;;;;;2.28;2.08;;;;;;;;;;5002044;28;20026;-75
2023/11/18 04:00:20;;;;;;;2.47;2.28;;;;;;;;;;5012213;28;20033;-77
2023/11/18 04:02:46;;;;;;;3.28;2.95;;;;;;;;;;4995080;28;20022;-77
2023/11/18 04:05:13;;;;;;;3.40;3.10;;;;;;;;;;5019201;28;20065;-77
2023/11/18 04:07:42;;;;;;;3.30;3.00;;;;;;;;;;5000280;28;20045;-76
2023/11/18 04:10:10;;;;;;;3.88;3.28;;;;;;;;;;4997752;28;20021;-76
2023/11/18 04:12:37;;;;;;;4.78;3.70;;;;;;;;;;4994205;28;20018;-77
2023/11/18 04:15:07;;;;;;;3.47;3.13;;;;;;;;;;5016724;28;20105;-76
2023/11/18 04:17:33;;;;;;;4.35;3.90;;;;;;;;;;5028121;28;20026;-76
2023/11/18 04:19:59;;;;;;;3.78;3.38;;;;;;;;;;5037385;28;20025;-76
2023/11/18 04:22:25;;;;;;;4.10;3.75;;;;;;;;;;5022348;28;20042;-76
2023/11/18 04:24:52;;;;;;;5.03;4.18;;;;;;;;;;5030316;28;20030;-77
2023/11/18 04:27:18;;;;;;;4.65;4.03;;;;;;;;;;5018034;28;20038;-79
2023/11/18 04:29:44;;;;;;;5.00;4.20;;;;;;;;;;5012185;28;20101;-77
2023/11/18 04:32:10;;;;;;;3.90;3.40;;;;;;;;;;4997340;28;20125;-77
2023/11/18 04:34:37;;;;;;;4.70;3.78;;;;;;;;;;5047313;22;20042;-78
2023/11/18 04:37:06;;;;;;;4.63;4.22;;;;;;;;;;5028928;28;20029;-77
2023/11/18 04:39:32;;;;;;;5.22;4.53;;;;;;;;;;5016352;28;20026;-78
2023/11/18 04:41:58;;;;;;;5.55;4.78;;;;;;;;;;5021394;28;20041;-78
2023/11/18 04:44:24;;;;;;;4.97;4.15;;;;;;;;;;5013857;28;20179;-76
2023/11/18 04:46:51;;;;;;;5.05;3.88;;;;;;;;;;5005860;28;20031;-77
2023/11/18 04:49:17;;;;;;;4.93;4.45;;;;;;;;;;5001054;28;20504;-77
2023/11/18 04:51:43;;;;;;;6.90;4.97;;;;;;;;;;5012880;28;20034;-77
2023/11/18 04:54:10;;;;;;;5.00;4.32;;;;;;;;;;5016969;28;20033;-78
2023/11/18 04:56:37;;;;;;;4.05;3.65;;;;;;;;;;5004902;28;20026;-78
2023/11/18 04:59:04;;;;;;;4.50;4.10;;;;;;;;;;5012638;28;20041;-77
2023/11/18 05:01:30;;;;;;;5.30;4.50;;;;;;;;;;5003417;28;20026;-78
2023/11/18 05:03:57;;;;;;;4.95;4.13;;;;;;;;;;5006846;28;20026;-77
2023/11/18 05:06:23;;;;;;;4.00;3.60;;;;;;;;;;5003056;28;20105;-78
2023/11/18 05:08:49;;;;;;;6.03;5.25;;;;;;;;;;5012592;28;20026;-77
2023/11/18 05:11:16;;;;;;;5.55;4.70;;;;;;;;;;5008564;28;20030;-77
2023/11/18 05:13:42;;;;;;;5.10;4.05;;;;;;;;;;5015829;28;20026;-77
2023/11/18 05:16:10;;;;;;;5.68;4.18;;;;;;;;;;5022649;28;20038;-76
2023/11/18 05:18:36;;;;;;;5.47;4.05;;;;;;;;;;5009705;28;20038;-77
2023/11/18 05:21:06;;;;;;;4.88;4.05;;;;;;;;;;5025503;28;20024;-76
2023/11/18 05:23:34;;;;;;;6.47;4.70;;;;;;;;;;5013565;28;20046;-77
2023/11/18 05:26:01;;;;;;;4.68;4.10;;;;;;;;;;5014193;28;20030;-77
2023/11/18 05:28:27;;;;;;;4.30;3.53;;;;;;;;;;5013630;28;20019;-76
2023/11/18 05:30:57;;;;;;;4.93;3.83;;;;;;;;;;5024721;28;20029;-77
2023/11/18 05:33:24;;;;;;;4.60;3.55;;;;;;;;;;5017039;28;20022;-77
2023/11/18 05:35:50;;;;;;;3.90;3.50;;;;;;;;;;5027025;28;20066;-77
2023/11/18 05:38:21;;;;;;;4.35;3.70;;;;;;;;;;5011714;28;20015;-78
2023/11/18 05:40:56;;;;;;;4.13;3.60;;;;;;;;;;5020707;28;20033;-78
2023/11/18 05:43:29;;;;;;;4.40;3.55;;;;;;;;;;5020234;28;20038;-79
2023/11/18 05:46:14;;;;;;;;;;;;;;;;;;5012472;28;20073;-77
2023/11/18 05:48:40;;;;;;;3.95;3.47;;;;;;;;;;5009825;28;19936;-77
2023/11/18 05:51:06;;;;;;;5.25;3.47;;;;;;;;;;5021192;28;20449;-77
2023/11/18 05:53:32;;;;;;;3.60;3.28;;;;;;;;;;5027775;28;20033;-77
2023/11/18 05:55:58;;;;;;;4.07;3.42;;;;;;;;;;5011315;28;20034;-78
2023/11/18 05:58:25;;;;;;;3.63;3.25;;;;;;;;;;5010205;28;20034;-78
2023/11/18 06:00:51;;;;;;;3.80;3.40;;;;;;;;;;5016923;28;20033;-77
2023/11/18 06:03:17;;;;;;;4.75;2.83;;;;;;;;;;5016725;28;20064;-77
2023/11/18 06:05:44;;;;;;;2.63;2.42;;;;;;;;;;5009818;28;20030;-77
2023/11/18 06:08:12;;;;;;;3.28;2.92;;;;;;;;;;5008122;28;20030;-77
2023/11/18 06:10:38;;;;;;;3.67;2.72;;;;;;;;;;5019591;28;20110;-77
2023/11/18 06:13:04;;;;;;;4.03;3.22;;;;;;;;;;5006446;28;20030;-78
2023/11/18 06:15:30;;;;;;;3.50;3.20;;;;;;;;;;5003338;28;20023;-77
2023/11/18 06:17:57;;;;;;;3.47;3.17;;;;;;;;;;5003214;28;20121;-77
2023/11/18 06:20:24;;;;;;;4.80;3.75;;;;;;;;;;5007539;28;20038;-77
2023/11/18 06:22:50;;;;;;;3.83;3.28;;;;;;;;;;5008675;28;20048;-77
2023/11/18 06:25:16;;;;;;;3.85;3.30;;;;;;;;;;5007923;28;20040;-77
2023/11/18 06:27:45;;;;;;;4.53;3.60;;;;;;;;;;5007433;28;20018;-77
2023/11/18 06:30:12;;;;;;;4.18;3.28;;;;;;;;;;5007780;28;20026;-77
2023/11/18 06:32:38;;;;;;;3.90;3.13;;;;;;;;;;5009738;28;20049;-78
2023/11/18 06:35:05;;;;;;;4.13;2.95;;;;;;;;;;5012767;28;20053;-77
2023/11/18 06:37:34;;;;;;;3.72;3.00;;;;;;;;;;5012642;28;20022;-77
2023/11/18 06:40:01;;;;;;;3.55;2.80;;;;;;;;;;5013655;28;20473;-77
2023/11/18 06:42:27;;;;;;;2.90;2.60;;;;;;;;;;5024094;28;20030;-78
2023/11/18 06:44:53;;;;;;;4.07;3.08;;;;;;;;;;5025115;28;20085;-77
2023/11/18 06:47:19;;;;;;;3.15;2.85;;;;;;;;;;5006267;28;20030;-77
2023/11/18 06:49:47;;;;;;;2.88;2.42;;;;;;;;;;5006477;28;20118;-77
2023/11/18 06:52:13;;;;;;;3.92;3.05;;;;;;;;;;5008210;28;20027;-78
2023/11/18 06:54:42;;;;;;;3.28;2.90;;;;;;;;;;5006660;28;20086;-77
2023/11/18 06:57:08;;;;;;;3.85;2.92;;;;;;;;;;5006218;28;20170;-77
2023/11/18 06:59:34;;;;;;;4.03;3.63;;;;;;;;;;5014114;28;20039;-77
2023/11/18 07:02:00;;;;;;;3.67;3.13;;;;;;;;;;5008053;28;20056;-78
2023/11/18 07:04:27;;;;;;;4.95;3.50;;;;;;;;;;5005695;28;20085;-77
2023/11/18 07:06:53;;;;;;;3.90;3.47;;;;;;;;;;5020441;28;20022;-77
2023/11/18 07:09:20;;;;;;;4.05;3.50;;;;;;;;;;5009624;28;20492;-77
2023/11/18 07:11:47;;;;;;;3.80;3.10;;;;;;;;;;5009404;28;20023;-77
2023/11/18 07:14:14;;;;;;;3.17;2.83;;;;;;;;;;5015957;28;20027;-78
2023/11/18 07:16:41;;;;;;;5.10;3.08;;;;;;;;;;5012453;28;20056;-78
2023/11/18 07:19:07;;;;;;;5.07;3.53;;;;;;;;;;5011440;28;20025;-77
2023/11/18 07:21:34;;;;;;;3.30;3.00;;;;;;;;;;5018112;28;20018;-78
2023/11/18 07:24:02;;;;;;;4.78;3.40;;;;;;;;;;5014575;28;20034;-78
2023/11/18 07:26:28;;;;;;;3.90;3.20;;;;;;;;;;5006782;28;20082;-77
2023/11/18 07:28:54;;;;;;;3.28;2.97;;;;;;;;;;5011762;28;20019;-77
2023/11/18 07:31:20;;;;;;;4.00;2.90;;;;;;;;;;5013455;28;20034;-78
2023/11/18 07:33:49;;;;;;;3.92;3.10;;;;;;;;;;5012301;28;20077;-78
2023/11/18 07:36:16;;;;;;;3.55;2.90;;;;;;;;;;5012015;28;20061;-78
2023/11/18 07:38:42;;;;;;;4.60;3.55;;;;;;;;;;5020490;28;20072;-78
2023/11/18 07:41:08;;;;;;;3.20;2.90;;;;;;;;;;5014479;28;20057;-78
2023/11/18 07:43:40;;;;;;;3.03;2.72;;;;;;;;;;5009643;28;20022;-77
2023/11/18 07:46:07;;;;;;;5.65;3.30;;;;;;;;;;5017293;28;20022;-78
2023/11/18 07:48:35;;;;;;;4.72;3.83;;;;;;;;;;5010262;28;20019;-78
2023/11/18 07:51:02;;;;;;;4.32;3.50;;;;;;;;;;5011830;28;20121;-80
2023/11/18 07:53:29;;;;;;;4.93;3.72;;;;;;;;;;5010612;28;20082;-77
2023/11/18 07:55:55;;;;;;;4.43;3.72;;;;;;;;;;5003275;28;20026;-77
2023/11/18 07:58:23;;;;;;;4.38;3.85;;;;;;;;;;5006149;28;20033;-77
2023/11/18 08:00:50;;;;;;;6.15;3.50;;;;;;;;;;5011575;28;20026;-79
2023/11/18 08:03:16;;;;;;;4.40;3.50;;;;;;;;;;5010931;28;20042;-77
2023/11/18 08:05:46;;;;;;;5.20;3.53;;;;;;;;;;5014662;28;20041;-77
2023/11/18 08:08:12;;;;;;;3.67;3.25;;;;;;;;;;5019450;28;20006;-77
2023/11/18 08:10:39;;;;;;;4.10;3.10;;;;;;;;;;5003276;28;20023;-77
2023/11/18 08:13:07;;;;;;;3.50;3.10;;;;;;;;;;5001143;28;20030;-78
2023/11/18 08:15:34;;;;;;;4.47;3.33;;;;;;;;;;5029598;28;20046;-78
2023/11/18 08:18:00;;;;;;;5.22;3.53;;;;;;;;;;5029335;28;20030;-77
2023/11/18 08:20:26;;;;;;;5.13;3.63;;;;;;;;;;5014653;28;20014;-79
2023/11/18 08:22:53;;;;;;;5.32;2.67;;;;;;;;;;5049371;28;20237;-77
2023/11/18 08:25:19;;;;;;;3.47;2.90;;;;;;;;;;5011426;28;20034;-79
2023/11/18 08:27:45;;;;;;;3.15;2.45;;;;;;;;;;5019423;28;20037;-79
2023/11/18 08:30:12;;;;;;;4.20;2.88;;;;;;;;;;5007145;28;20018;-78
2023/11/18 08:32:39;;;;;;;3.25;2.92;;;;;;;;;;5010161;28;20025;-79
2023/11/18 08:35:09;;;;;;;2.58;2.38;;;;;;;;;;5017166;28;20034;-77
2023/11/18 08:37:36;;;;;;;2.92;2.63;;;;;;;;;;5008391;28;20029;-80
2023/11/18 08:40:25;;;;;;;3.10;2.80;;;;;;;;;;5007582;28;20046;-79
2023/11/18 08:42:55;;;;;;;2.92;2.50;;;;;;;;;;5002997;28;20038;-78
2023/11/18 08:45:32;;;;;;;4.63;3.35;;;;;;;;;;5006742;28;20035;-79
2023/11/18 08:48:01;;;;;;;3.80;3.25;;;;;;;;;;5002104;28;20142;-80
2023/11/18 08:50:28;;;;;;;5.35;3.70;;;;;;;;;;5008754;28;20022;-79
2023/11/18 08:52:58;;;;;;;6.25;3.40;;;;;;;;;;5010155;28;20029;-78
2023/11/18 08:55:38;;;;;;;3.88;3.25;;;;;;;;;;5007766;28;20136;-79
2023/11/18 08:58:15;;;;;;;5.28;3.55;;;;;;;;;;5018786;28;20022;-79
2023/11/18 09:03:24;;;;;;;3.78;2.83;;;;;;;;;;5010255;28;20031;-80
2023/11/18 09:05:57;;;;;;;3.05;2.65;;;;;;;;;;5012876;28;20058;-78
2023/11/18 09:08:29;;;;;;;2.75;2.42;;;;;;;;;;4999923;28;20026;-78
2023/11/18 09:10:55;;;;;;;3.38;2.95;;;;;;;;;;5017802;28;20056;-79
2023/11/18 09:13:22;;;;;;;2.60;2.10;;;;;;;;;;5024904;28;20050;-79
2023/11/18 09:15:49;;;;;;;3.08;2.63;;;;;;;;;;5010979;28;20022;-77
2023/11/18 09:18:17;;;;;;;3.20;2.40;;;;;;;;;;5005886;28;20023;-79
2023/11/18 09:20:44;;;;;;;2.42;2.22;;;;;;;;;;5005271;28;20041;-79
2023/11/18 09:23:10;;;;;;;2.92;2.63;;;;;;;;;;5007745;28;20030;-79
2023/11/18 09:25:36;;;;;;;3.45;2.22;;;;;;;;;;5009829;28;20014;-79
2023/11/18 09:28:03;;;;;;;2.65;2.05;;;;;;;;;;5011883;28;20081;-78
2023/11/18 09:30:29;;;;;;;2.15;1.98;;;;;;;;;;5023933;28;20023;-79
2023/11/18 09:32:55;;;;;;;2.25;2.03;;;;;;;;;;5014902;28;20026;-78
2023/11/18 09:35:21;;;;;;;2.58;2.10;;;;;;;;;;5022593;28;20106;-80
2023/11/18 09:37:47;;;;;;;2.65;2.08;;;;;;;;;;5004978;28;20030;-79
2023/11/18 09:40:14;;;;;;;2.42;2.17;;;;;;;;;;5010260;28;20086;-80
2023/11/18 09:42:43;;;;;;;1.60;1.50;;;;;;;;;;5018955;28;20089;-79
2023/11/18 09:45:19;;;;;;;3.08;2.10;;;;;;;;;;5012608;28;20396;-79
2023/11/18 09:47:47;;;;;;;2.08;1.95;;;;;;;;;;5009709;28;20022;-79
2023/11/18 09:50:15;;;;;;;2.83;1.83;;;;;;;;;;5015189;28;20018;-78
2023/11/18 09:52:51;;;;;;;2.00;1.80;;;;;;;;;;5008937;28;20077;-79
2023/11/18 09:55:35;;;;;;;1.70;1.52;;;;;;;;;;5008502;28;20049;-80
2023/11/18 09:58:13;;;;;;;2.28;2.00;;;;;;;;;;5008476;28;20094;-80
2023/11/18 10:00:41;;;;;;;1.88;1.77;;;;;;;;;;5003907;28;20110;-79
2023/11/18 10:03:09;;;;;;;3.65;1.70;;;;;;;;;;5012183;28;20429;-79
2023/11/18 10:05:36;;;;;;;3.35;2.65;;;;;;;;;;5013547;28;20040;-79
2023/11/18 10:08:05;;;;;;;3.25;2.25;;;;;;;;;;5016371;28;20054;-79
2023/11/18 10:10:38;;;;;;;1.70;1.60;;;;;;;;;;5014201;28;20018;-82
2023/11/18 10:13:08;;;;;;;1.73;1.63;;;;;;;;;;5018221;28;20023;-80
2023/11/18 10:15:34;;;;;;;1.98;1.88;;;;;;;;;;5016166;28;20089;-77
2023/11/18 10:18:06;;;;;;;1.58;1.48;;;;;;;;;;5014119;28;20042;-80
2023/11/18 10:20:44;;;;;;;3.65;1.50;;;;;;;;;;5009227;28;20096;-79
2023/11/18 10:23:11;;;;;;;1.70;1.60;;;;;;;;;;5002952;28;20031;-79
2023/11/18 10:25:48;;;;;;;2.22;1.55;;;;;;;;;;5009774;28;20022;-79
2023/11/18 10:28:32;;;;;;;2.05;1.40;;;;;;;;;;5015511;28;20026;-78
2023/11/18 10:31:05;;;;;;;2.33;1.30;;;;;;;;;;5022603;28;20112;-78
2023/11/18 10:33:32;;;;;;;1.85;1.75;;;;;;;;;;5038659;22;21256;-77
2023/11/18 10:36:02;;;;;;;1.70;1.55;;;;;;;;;;5031218;28;20084;-77
2023/11/18 10:38:29;;;;;;;1.40;1.30;;;;;;;;;;5029886;28;20040;-75
2023/11/18 10:40:56;;;;;;;1.42;1.38;;;;;;;;;;5028057;28;20045;-76
2023/11/18 10:43:28;;;;;;;1.50;1.40;;;;;;;;;;5026779;28;20037;-75
2023/11/18 10:45:54;;;;;;;;;;;;;;;;;;5028583;28;20030;-76
2023/11/18 10:48:21;;;;;;;2.30;1.23;;;;;;;;;;5015831;28;19906;-77
2023/11/18 10:50:50;;;;;;;1.30;1.17;;;;;;;;;;5008552;28;20318;-76
2023/11/18 10:53:18;;;;;;;1.13;1.00;;;;;;;;;;5025333;28;20026;-76
2023/11/18 10:55:44;;;;;;;1.88;1.00;;;;;;;;;;5024670;28;20027;-76
2023/11/18 10:58:12;;;;;;;1.00;0.90;;;;;;;;;;5020121;28;20408;-76
2023/11/18 11:00:48;;;;;;;1.17;1.00;;;;;;;;;;5016032;28;20014;-76
2023/11/18 11:03:14;;;;;;;1.63;0.80;;;;;;;;;;5023672;28;20036;-76
2023/11/18 11:05:42;;;;;;;1.15;0.85;;;;;;;;;;5012962;28;20045;-77
2023/11/18 11:08:12;;;;;;;1.27;1.17;;;;;;;;;;5015998;28;20065;-77
2023/11/18 11:10:41;;;;;;;1.88;1.38;;;;;;;;;;5017693;28;20021;-75
2023/11/18 11:13:08;;;;;;;1.55;1.45;;;;;;;;;;5037299;28;20093;-76
2023/11/18 11:15:37;;;;;;;1.35;1.25;;;;;;;;;;5047415;28;20026;-76
2023/11/18 11:18:09;;;;;;;2.85;1.23;;;;;;;;;;5033593;28;20029;-76
2023/11/18 11:20:43;;;;;;;1.13;1.02;;;;;;;;;;5018977;28;20113;-77
2023/11/18 11:23:14;;;;;;;1.73;1.30;;;;;;;;;;5021499;28;20033;-77
2023/11/18 11:25:46;;;;;;;1.42;0.82;;;;;;;;;;5014845;28;20022;-77
2023/11/18 11:28:17;;;;;;;0.70;0.70;;;;;;;;;;5017788;28;20021;-77
2023/11/18 11:30:50;;;;;;;0.70;0.70;;;;;;;;;;5011141;28;20030;-76
2023/11/18 11:33:40;;;;;;;0.70;0.70;;;;;;;;;;5020747;28;20022;-76
2023/11/18 11:36:11;;;;;;;1.08;0.98;;;;;;;;;;5015630;28;20037;-77
2023/11/18 11:38:37;;;;;;;1.03;0.80;;;;;;;;;;5013984;28;20022;-77
2023/11/18 11:41:05;;;;;;;1.15;1.05;;;;;;;;;;5015677;28;20091;-77
2023/11/18 11:43:34;;;;;;;4.53;1.17;;;;;;;;;;5014675;28;20063;-77
2023/11/18 11:46:09;;;;;;;1.25;1.15;;;;;;;;;;5018229;28;20018;-77
2023/11/18 11:48:36;;;;;;;2.47;1.08;;;;;;;;;;5032752;28;20028;-76
2023/11/18 11:51:03;;;;;;;1.05;0.70;;;;;;;;;;5017393;28;20026;-77
2023/11/18 11:53:45;;;;;;;0.90;0.90;;;;;;;;;;5015648;28;20022;-76
2023/11/18 11:56:14;;;;;;;2.00;1.15;;;;;;;;;;5021374;28;20468;-76
2023/11/18 11:58:44;;;;;;;3.25;1.70;;;;;;;;;;5013258;28;20018;-76
2023/11/18 12:01:18;;;;;;;1.23;0.60;;;;;;;;;;5030109;28;20051;-76
2023/11/18 12:03:47;;;;;;;0.80;0.80;;;;;;;;;;5024329;28;20038;-77
2023/11/18 12:06:23;;;;;;;0.50;0.50;;;;;;;;;;5012928;28;20096;-77
2023/11/18 12:08:51;;;;;;;1.02;0.80;;;;;;;;;;5009672;28;20017;-77
2023/11/18 12:11:18;;;;;;;1.42;1.17;;;;;;;;;;5014265;28;20484;-76
2023/11/18 12:14:41;;;;;;;0.70;0.70;;;;;;;;;;5014636;28;20038;-77
2023/11/18 12:17:06;;;;;;;2.50;0.88;;;;;;;;;;5016317;28;20431;-76
2023/11/18 12:19:37;;;;;;;0.80;0.43;;;;;;;;;;5021570;28;20146;-76
2023/11/18 12:22:12;;;;;;;0.93;0.75;;;;;;;;;;5034643;28;20421;-77
2023/11/18 12:24:39;;;;;;;0.88;0.70;;;;;;;;;;5018006;28;20022;-77
2023/11/18 12:27:12;;;;;;;0.85;0.85;;;;;;;;;;5013104;28;20056;-76
2023/11/18 12:29:38;;;;;;;;;;;;;;;;;;5013301;28;20423;-77
2023/11/18 12:32:05;;;;;;;1.58;1.05;;;;;;;;;;5017966;28;19909;-76
2023/11/18 12:34:51;;;;;;;1.75;0.90;;;;;;;;;;5014382;28;20440;-76
2023/11/18 12:37:21;;;;;;;0.55;0.55;;;;;;;;;;5025337;28;20399;-76
2023/11/18 12:40:12;;;;;;;0.93;0.65;;;;;;;;;;5016448;28;20392;-77
2023/11/18 12:42:39;;;;;;;1.15;0.60;;;;;;;;;;5018061;28;20095;-77
2023/11/18 12:45:24;;;;;;;2.05;0.88;;;;;;;;;;5017848;28;20029;-77
2023/11/18 12:47:52;;;;;;;0.82;0.68;;;;;;;;;;5009422;28;20032;-76
2023/11/18 12:50:24;;;;;;;1.42;0.98;;;;;;;;;;5016168;28;20030;-77
2023/11/18 12:52:53;;;;;;;1.40;0.60;;;;;;;;;;5030500;28;20026;-77
2023/11/18 12:55:21;;;;;;;2.25;1.02;;;;;;;;;;5019514;28;20045;-77
2023/11/18 12:57:47;;;;;;;2.28;0.60;;;;;;;;;;5020984;28;20491;-77
2023/11/18 13:00:17;;;;;;;0.50;0.40;;;;;;;;;;5025804;28;20076;-76
2023/11/18 13:02:43;;;;;;;0.70;0.70;;;;;;;;;;5008656;28;20018;-76
2023/11/18 13:05:09;;;;;;;0.40;0.40;;;;;;;;;;5018389;28;20029;-76
2023/11/18 13:07:36;;;;;;;0.77;0.63;;;;;;;;;;5018690;28;20029;-76
2023/11/18 13:10:04;;;;;;;0.57;0.40;;;;;;;;;;5018390;28;20025;-76
2023/11/18 13:12:30;;;;;;;1.38;0.60;;;;;;;;;;5016473;28;20112;-76
2023/11/18 13:14:56;;;;;;;0.32;0.30;;;;;;;;;;5024916;28;20038;-76
2023/11/18 13:17:23;;;;;;;0.50;0.50;;;;;;;;;;5017399;28;20101;-77
2023/11/18 13:19:54;;;;;;;0.95;0.50;;;;;;;;;;5017094;28;20064;-76
2023/11/18 13:22:20;;;;;;;0.55;0.50;;;;;;;;;;5017087;28;20030;-75
2023/11/18 13:24:46;;;;;;;0.40;0.40;;;;;;;;;;5022459;28;20535;-76
2023/11/18 13:27:16;;;;;;;1.60;0.80;;;;;;;;;;5035183;28;20022;-76
2023/11/18 13:29:48;;;;;;;1.20;0.70;;;;;;;;;;5026875;28;20037;-76
2023/11/18 13:32:15;;;;;;;0.63;0.40;;;;;;;;;;5019158;28;20026;-76
2023/11/18 13:34:42;;;;;;;0.38;0.38;;;;;;;;;;5018820;28;20037;-75
2023/11/18 13:37:08;;;;;;;1.25;0.60;;;;;;;;;;5026221;28;20099;-77
2023/11/18 13:39:42;;;;;;;0.65;0.32;;;;;;;;;;5021471;28;20034;-76
2023/11/18 13:42:26;;;;;;;0.40;0.40;;;;;;;;;;5021812;28;20037;-77
2023/11/18 13:44:52;;;;;;;0.70;0.52;;;;;;;;;;5011809;28;20040;-76
2023/11/18 13:47:19;;;;;;;0.43;0.40;;;;;;;;;;5018786;28;20469;-77
2023/11/18 13:49:46;;;;;;;0.30;0.30;;;;;;;;;;5023001;28;20345;-76
2023/11/18 13:52:15;;;;;;;0.73;0.68;;;;;;;;;;5021362;28;20018;-77
2023/11/18 13:54:44;;;;;;;0.65;0.30;;;;;;;;;;5019678;28;20040;-77
2023/11/18 13:57:11;;;;;;;0.98;0.40;;;;;;;;;;5043166;28;20027;-76
2023/11/18 13:59:38;;;;;;;0.65;0.50;;;;;;;;;;5036927;28;20025;-78
2023/11/18 14:02:05;;;;;;;0.20;0.20;;;;;;;;;;5037684;28;20029;-77
2023/11/18 14:04:34;;;;;;;0.40;0.40;;;;;;;;;;5028537;28;20113;-77
2023/11/18 14:07:05;;;;;;;1.23;0.60;;;;;;;;;;5032167;28;20360;-76
2023/11/18 14:09:32;;;;;;;0.40;0.40;;;;;;;;;;5025362;28;20105;-76
2023/11/18 14:11:59;;;;;;;1.08;0.60;;;;;;;;;;5025315;28;20137;-76
2023/11/18 14:14:28;;;;;;;0.57;0.40;;;;;;;;;;5022490;28;20045;-75
2023/11/18 14:16:57;;;;;;;0.75;0.57;;;;;;;;;;5026843;28;20391;-75
2023/11/18 14:19:30;;;;;;;0.45;0.40;;;;;;;;;;5033862;28;20114;-77
2023/11/18 14:21:57;;;;;;;1.65;0.45;;;;;;;;;;5027508;28;20041;-76
2023/11/18 14:24:27;;;;;;;0.40;0.40;;;;;;;;;;5042815;28;20030;-77
2023/11/18 14:26:53;;;;;;;0.47;0.40;;;;;;;;;;5031906;28;20034;-76
2023/11/18 14:29:19;;;;;;;0.70;0.70;;;;;;;;;;5019576;28;20052;-77
2023/11/18 14:31:46;;;;;;;0.60;0.50;;;;;;;;;;5024046;28;20025;-76
2023/11/18 14:34:12;;;;;;;0.38;0.35;;;;;;;;;;5016775;28;20044;-75
2023/11/18 14:36:38;;;;;;;0.77;0.40;;;;;;;;;;5029878;28;20040;-77
2023/11/18 14:39:05;;;;;;;0.75;0.40;;;;;;;;;;5017780;28;20026;-77
2023/11/18 14:41:31;;;;;;;2.35;0.70;;;;;;;;;;5031480;28;20041;-76
2023/11/18 14:44:03;;;;;;;0.65;0.45;;;;;;;;;;5022832;28;20092;-76
2023/11/18 14:46:31;;;;;;;;;;;;;;;;;;5021648;28;20022;-76
2023/11/18 14:48:57;;;;;;;0.50;0.50;;;;;;;;;;5041866;28;19909;-77
2023/11/18 14:51:23;;;;;;;2.55;0.60;;;;;;;;;;5018380;28;20443;-77
2023/11/18 14:53:49;;;;;;;1.00;0.70;;;;;;;;;;5022415;28;20021;-77